Reubens, ID (83548)

10:40 AM PDT on October 25, 2014 (GMT -0700)
Camas Prairie | Change Station
CLOSE
Current Station
Personal Weather Station
Location: Reubens, ID
Elevation: 3480 ft
Nearby Weather Stations

Elev 3480 ft 46.35 °N, 116.53 °W | Updated 10 seconds ago

Clear
Clear
51.9 °F
Feels Like 51.9 °F
N
15.0
Wind Variable Wind from SE
Gusts 15.0 mph

Today
High -- | Low -- °F
--% Chance of Precip.
Yesterday
High -- | Low -- °F
Precip. -- in
7:17 AM 5:42 PM
Waxing Crescent, 4% visible
Pressure 29.77 in
Visibility 10.0 miles
Clouds Clear
Dew Point 44 °F
Humidity 73%
Rainfall 0.00 in
Snow Depth Not available.
UV 3 out of 12
Pollen 2.40 out of 12
PM2.5 Good
Flu Activity No Activity
METAR KGIC 251735Z AUTO 08003KT 10SM CLR 08/07 A2977 RMK AO1 T00810067

More Conditions Fewer Conditions

Pressure 29.77 in
Visibility 10.0 miles
Clouds Clear
Dew Point 44 °F
Humidity 73%
Rainfall 0.00 in
Snow Depth Not available.
UV 3 out of 12
Pollen 2.40 out of 12
PM2.5 Good
Flu Activity No Activity
METAR KGIC 251735Z AUTO 08003KT 10SM CLR 08/07 A2977 RMK AO1 T00810067

More Conditions Fewer Conditions

10-Day Weather Forecast

Almanac

Astronomy

Oct. 25, 2014 Rise Set
Actual Time 7:17 AM PDT 5:42 PM PDT
Civil Twilight 6:46 AM PDT 6:13 PM PDT
Nautical Twilight 6:11 AM PDT 6:48 PM PDT
Astronomical Twilight 5:36 AM PDT 7:22 PM PDT
Moon 9:05 AM PDT 7:03 PM PDT
Length of Visible Light 11h 26m
Length of Day
10h 24m
Tomorrow will be 3m 3s shorter.
Waxing Crescent, 4% of the Moon is Illuminated
Today
Waxing Crescent
Oct 30
First Quarter
Nov 6
Full
Nov 14
Last Quarter
Nov 22
New

Today's Extremes

State Highs State Lows

Community

WunderPhotos

Upload Photos

1,764,919 photos uploaded!

Nearby

Air Quality

  Air Quality AQ Index Pollutant
Yesterday Good
PM2.5
Current Good
PM2.5
Saturday Good
PM2.5
Sunday Good
PM2.5
Monday Good
PM2.5

Snow Depth

Station Depth Elevation
Moscow Mountain 0 in 4700 ft
Shanghi Summit 0 in 4570 ft
Hemlock Butte 0 in 5810 ft
Mica Creek 1 in 4750 ft
Lost Lake 0 in 6110 ft

Earthquake Activity

City Distance Mag. Time & Date
No recent earthquake activity has been reported nearby.
Minimum magnitude displayed is 2.5.

Coastal Water Temperatures

Place Temperature
No Stations Reporting

Nearby Weather Stations